Time;durP1;ratioP1;P1;durP2;ratioP2;P2;SDS_P1;SDS_P2;PMS_P1;PMS_P2;Temp;Humidity;BMP_temperature;BMP_pressure;BME280_temperature;BME280_humidity;BME280_pressure;Samples;Min_cycle;Max_cycle;Signal;HPM_P1;HPM_P2
2023/03/25 00:00:29;;;;;;;19.63;18.10;;;;;;;21.73;34.96;94766.00;6077416;28;112459;-68
2023/03/25 00:03:45;;;;;;;19.27;17.67;;;;;;;21.71;34.89;94752.22;6081505;28;110308;-66
2023/03/25 00:07:00;;;;;;;20.27;18.57;;;;;;;21.73;34.88;94763.34;6081802;28;109837;-67
2023/03/25 00:10:10;;;;;;;19.40;17.70;;;;;;;21.73;35.34;94757.22;6074678;28;109344;-68
2023/03/25 00:13:20;;;;;;;19.13;17.53;;;;;;;21.72;35.19;94761.75;6085326;28;110074;-68
2023/03/25 00:16:28;;;;;;;19.13;17.40;;;;;;;21.73;35.12;94765.22;6084624;28;109250;-68
2023/03/25 00:19:40;;;;;;;18.47;16.87;;;;;;;21.73;35.04;94757.22;6085468;28;109236;-68
2023/03/25 00:22:50;;;;;;;18.60;17.10;;;;;;;21.72;35.05;94759.09;6074444;28;109538;-68
2023/03/25 00:26:01;;;;;;;16.83;15.43;;;;;;;21.72;35.07;94753.00;6085499;28;109196;-68
2023/03/25 00:29:13;;;;;;;17.70;16.30;;;;;;;21.70;34.84;94742.66;6072968;28;109111;-67
2023/03/25 00:32:20;;;;;;;18.17;16.67;;;;;;;21.72;34.96;94739.69;6072237;28;109236;-68
2023/03/25 00:35:29;;;;;;;17.13;15.63;;;;;;;21.71;34.82;94741.56;6085720;28;109129;-67
2023/03/25 00:38:42;;;;;;;16.90;15.40;;;;;;;21.72;35.03;94737.00;6085766;28;109213;-68
2023/03/25 00:41:47;;;;;;;16.73;15.43;;;;;;;21.71;35.24;94738.91;6084990;28;109031;-68
2023/03/25 00:44:56;;;;;;;16.07;14.80;;;;;;;21.72;34.94;94737.00;6071689;28;109358;-67
2023/03/25 00:48:03;;;;;;;15.93;14.63;;;;;;;21.71;34.63;94736.22;6086270;28;109057;-68
2023/03/25 00:51:18;;;;;;;15.80;14.50;;;;;;;21.68;35.23;94736.06;6077224;28;109125;-68
2023/03/25 00:54:28;;;;;;;15.60;14.30;;;;;;;21.71;34.97;94733.56;6079300;28;109513;-68
2023/03/25 00:57:34;;;;;;;16.00;14.70;;;;;;;21.72;34.71;94734.34;6077931;28;109254;-67
2023/03/25 01:00:47;;;;;;;16.00;14.70;;;;;;;21.71;34.75;94740.78;6076661;28;109272;-67
2023/03/25 01:03:57;;;;;;;16.40;14.90;;;;;;;21.66;35.00;94722.25;6083292;28;109031;-67
2023/03/25 01:07:14;;;;;;;16.00;14.40;;;;;;;21.71;35.17;94730.13;6075149;28;109560;-67
2023/03/25 01:10:23;;;;;;;15.33;14.03;;;;;;;21.71;34.86;94722.13;6080399;28;109953;-67
2023/03/25 01:13:27;;;;;;;15.27;14.07;;;;;;;21.69;35.19;94717.13;6082422;28;108824;-67
2023/03/25 01:16:36;;;;;;;15.80;14.50;;;;;;;21.70;35.20;94717.91;6084112;28;108763;-66
2023/03/25 01:19:45;;;;;;;15.20;13.90;;;;;;;21.67;35.16;94707.84;6073091;28;109426;-67
2023/03/25 01:22:55;;;;;;;14.53;13.43;;;;;;;21.70;34.80;94709.91;6084357;28;109243;-75
2023/03/25 01:26:07;;;;;;;14.43;13.30;;;;;;;21.63;35.32;94699.69;6077617;28;109650;-67
2023/03/25 01:29:18;;;;;;;15.60;14.23;;;;;;;21.69;35.24;94706.47;6072429;28;111404;-68
2023/03/25 01:32:24;;;;;;;14.90;13.60;;;;;;;21.69;35.29;94698.47;6076952;28;109441;-67
2023/03/25 01:35:33;;;;;;;14.63;13.43;;;;;;;21.70;34.96;94696.59;6082514;28;109252;-68
2023/03/25 01:38:41;;;;;;;14.67;13.57;;;;;;;21.66;35.27;94685.75;6083730;28;109004;-68
2023/03/25 01:41:53;;;;;;;13.77;12.67;;;;;;;21.68;34.92;94685.47;6068659;28;108965;-68
2023/03/25 01:45:21;;;;;;;14.17;13.07;;;;;;;21.67;35.18;94681.22;6081555;28;109037;-68
2023/03/25 01:48:34;;;;;;;15.17;13.97;;;;;;;21.68;35.11;94678.28;6077691;28;109152;-68
2023/03/25 01:51:47;;;;;;;14.50;13.20;;;;;;;21.66;35.06;94679.66;6079070;28;109107;-67
2023/03/25 01:54:59;;;;;;;14.13;12.93;;;;;;;21.68;35.07;94682.81;6078903;28;110038;-68
2023/03/25 01:58:16;;;;;;;13.53;12.40;;;;;;;21.68;35.11;94683.59;6080602;28;109019;-66
2023/03/25 02:01:25;;;;;;;12.90;11.90;;;;;;;21.61;35.03;94674.47;6082955;28;109032;-66
2023/03/25 02:04:43;;;;;;;16.77;15.47;;;;;;;21.68;35.12;94691.59;6073171;28;110963;-66
2023/03/25 02:07:51;;;;;;;13.97;12.77;;;;;;;21.66;34.77;94682.31;6080293;28;109228;-66
2023/03/25 02:11:01;;;;;;;12.73;11.73;;;;;;;21.66;34.86;94675.09;6106015;28;110344;-66
2023/03/25 02:14:16;;;;;;;13.77;12.60;;;;;;;21.64;34.57;94674.63;6087355;28;109073;-66
2023/03/25 02:17:32;;;;;;;14.20;13.00;;;;;;;21.64;34.90;94673.84;6069757;28;109088;-63
2023/03/25 02:21:30;;;;;;;13.43;12.33;;;;;;;21.64;34.70;94671.97;6085741;28;109095;-63
2023/03/25 02:25:14;;;;;;;13.67;12.57;;;;;;;21.64;34.75;94671.19;6087770;28;109131;-63
2023/03/25 02:28:28;;;;;;;13.40;12.30;;;;;;;21.64;35.25;94663.22;6070732;28;110726;-63
2023/03/25 02:31:57;;;;;;;11.93;11.03;;;;;;;21.63;34.85;94678.41;6072147;28;109314;-64
2023/03/25 02:35:32;;;;;;;14.40;13.20;;;;;;;21.62;35.06;94673.38;6086577;28;109865;-64
2023/03/25 02:38:46;;;;;;;13.00;11.87;;;;;;;21.64;34.96;94677.31;6075359;28;111280;-64
2023/03/25 02:42:02;;;;;;;12.43;11.47;;;;;;;21.63;34.55;94680.28;6088327;28;109141;-64
2023/03/25 02:45:15;;;;;;;13.40;12.27;;;;;;;21.58;34.68;94664.47;6086566;28;109185;-64
2023/03/25 02:48:30;;;;;;;13.03;12.03;;;;;;;21.63;35.02;94665.09;6084798;28;109079;-63
2023/03/25 02:51:47;;;;;;;14.27;13.07;;;;;;;21.61;34.63;94661.16;6078392;28;109078;-64
2023/03/25 02:55:00;;;;;;;13.77;12.67;;;;;;;21.63;34.73;94659.75;6086550;28;109108;-64
2023/03/25 02:58:14;;;;;;;13.20;12.20;;;;;;;21.59;35.02;94639.41;6083198;28;109273;-64
2023/03/25 03:01:25;;;;;;;13.27;12.27;;;;;;;21.63;34.68;94648.31;6073549;28;109193;-64
2023/03/25 03:04:33;;;;;;;13.67;12.57;;;;;;;21.62;34.68;94647.53;6082314;28;110670;-64
2023/03/25 03:07:48;;;;;;;12.80;11.90;;;;;;;21.62;34.63;94657.41;6084133;28;109795;-64
2023/03/25 03:11:08;;;;;;;13.63;12.53;;;;;;;21.61;35.13;94645.19;6083248;28;109932;-64
2023/03/25 03:14:37;;;;;;;13.67;12.57;;;;;;;21.62;34.91;94646.75;6069178;28;110370;-64
2023/03/25 03:17:55;;;;;;;14.07;12.87;;;;;;;21.61;34.55;94645.97;6077375;28;110000;-64
2023/03/25 03:21:14;;;;;;;13.03;11.97;;;;;;;21.60;34.93;94643.63;6088751;28;109019;-63
2023/03/25 03:24:28;;;;;;;14.37;13.20;;;;;;;21.58;34.88;94635.19;6064412;28;109135;-64
2023/03/25 03:27:46;;;;;;;14.23;13.10;;;;;;;21.61;35.00;94650.53;6085071;28;110238;-63
2023/03/25 03:31:01;;;;;;;12.53;11.53;;;;;;;21.55;34.95;94643.78;6084264;28;109137;-64
2023/03/25 03:34:13;;;;;;;14.77;13.47;;;;;;;21.57;34.76;94652.25;6081029;28;109136;-63
2023/03/25 03:37:26;;;;;;;14.60;13.40;;;;;;;21.58;34.79;94651.94;6070188;28;109640;-64
2023/03/25 03:40:36;;;;;;;14.73;13.53;;;;;;;21.59;34.74;94658.03;6081410;28;110125;-64
2023/03/25 03:43:54;;;;;;;13.67;12.57;;;;;;;21.58;34.93;94657.25;6081341;28;109344;-64
2023/03/25 03:47:10;;;;;;;14.73;13.53;;;;;;;21.58;34.86;94651.16;6071481;28;110223;-64
2023/03/25 03:50:26;;;;;;;14.87;13.67;;;;;;;21.58;34.66;94656.47;6084180;28;108967;-65
2023/03/25 03:53:37;;;;;;;13.80;12.70;;;;;;;21.59;34.49;94663.38;6086278;28;108937;-65
2023/03/25 03:56:47;;;;;;;14.43;13.23;;;;;;;21.58;34.93;94659.13;6083352;28;109990;-64
2023/03/25 04:00:05;;;;;;;13.93;12.83;;;;;;;21.57;34.57;94662.91;6070435;28;110283;-64
2023/03/25 04:03:23;;;;;;;14.33;13.13;;;;;;;21.58;34.56;94667.13;6084671;28;110413;-65
2023/03/25 04:06:37;;;;;;;14.60;13.47;;;;;;;21.58;34.66;94661.81;6063073;28;109118;-65
2023/03/25 04:09:56;;;;;;;14.20;13.00;;;;;;;21.57;34.67;94663.69;6071486;28;109118;-65
2023/03/25 04:13:12;;;;;;;14.67;13.47;;;;;;;21.57;34.85;94661.03;6085606;28;111027;-64
2023/03/25 04:16:23;;;;;;;13.67;12.57;;;;;;;21.56;34.52;94664.78;6085520;28;109046;-64
2023/03/25 04:19:32;;;;;;;14.90;13.67;;;;;;;21.58;34.47;94672.44;6085608;28;109046;-64
2023/03/25 04:22:38;;;;;;;13.90;12.80;;;;;;;21.58;34.33;94667.13;6073864;28;109133;-64
2023/03/25 04:25:46;;;;;;;14.47;13.37;;;;;;;21.60;34.26;94667.59;6079759;28;110107;-64
2023/03/25 04:28:58;;;;;;;14.90;13.70;;;;;;;21.57;34.60;94666.34;6071728;28;110815;-64
2023/03/25 04:32:08;;;;;;;15.33;14.03;;;;;;;21.59;34.60;94668.69;6076130;28;109208;-64
2023/03/25 04:35:18;;;;;;;14.33;13.13;;;;;;;21.56;34.58;94664.00;6084386;28;111424;-65
2023/03/25 04:38:23;;;;;;;16.37;14.90;;;;;;;21.59;35.15;94668.69;6075780;28;110212;-72
2023/03/25 04:41:30;;;;;;;15.87;14.57;;;;;;;21.62;34.86;94673.38;6078108;28;109372;-71
2023/03/25 04:44:37;;;;;;;15.70;14.20;;;;;;;21.50;34.88;94674.78;6073475;28;109972;-72
2023/03/25 04:47:47;;;;;;;15.37;13.53;;;;;;;21.17;34.51;94669.09;6085816;28;109039;-72
2023/03/25 04:50:56;;;;;;;14.00;11.13;;;;;;;20.86;33.77;94673.63;6085313;28;109103;-66
2023/03/25 04:54:06;;;;;;;11.63;10.43;;;;;;;20.70;33.96;94683.09;6083428;28;109118;-65
2023/03/25 04:57:19;;;;;;;10.40;9.50;;;;;;;20.28;33.46;94680.63;6063241;28;108997;-65
2023/03/25 05:00:29;;;;;;;10.60;9.77;;;;;;;20.04;34.29;94682.78;6080434;28;110940;-65
2023/03/25 05:03:38;;;;;;;11.67;10.23;;;;;;;19.99;33.91;94678.34;6080956;28;110577;-65
2023/03/25 05:06:45;;;;;;;10.90;9.80;;;;;;;20.32;33.99;94673.63;6071009;28;109538;-68
2023/03/25 05:09:56;;;;;;;10.67;9.60;;;;;;;20.69;33.54;94684.97;6085022;28;112103;-65
2023/03/25 05:13:06;;;;;;;13.53;10.30;;;;;;;20.77;33.33;94670.13;6081822;28;109203;-68
2023/03/25 05:16:13;;;;;;;9.80;9.00;;;;;;;20.74;32.92;94668.88;6079910;28;109524;-68
2023/03/25 05:19:21;;;;;;;14.90;9.07;;;;;;;20.71;32.62;94674.03;6074071;28;109004;-64
2023/03/25 05:22:29;;;;;;;9.23;8.50;;;;;;;20.73;32.73;94672.63;6084573;28;109359;-65
2023/03/25 05:25:41;;;;;;;9.50;8.60;;;;;;;20.69;32.47;94669.00;6085561;28;109146;-65
2023/03/25 05:28:50;;;;;;;8.77;7.97;;;;;;;20.67;32.19;94681.00;6080600;28;110496;-63
2023/03/25 05:31:58;;;;;;;9.67;8.87;;;;;;;20.72;32.64;94680.91;6066635;28;108987;-65
2023/03/25 05:35:10;;;;;;;9.33;8.47;;;;;;;20.67;32.39;94675.69;6083267;28;109041;-64
2023/03/25 05:38:21;;;;;;;9.93;8.73;;;;;;;20.82;32.65;94672.66;6085604;28;109012;-63
2023/03/25 05:41:39;;;;;;;11.57;9.17;;;;;;;20.91;33.23;94676.13;6074652;28;109122;-66
2023/03/25 05:44:51;;;;;;;9.80;9.00;;;;;;;20.90;32.96;94658.63;6084877;28;109402;-66
2023/03/25 05:48:01;;;;;;;9.93;9.13;;;;;;;21.12;32.76;94671.06;6085379;28;109212;-65
2023/03/25 05:51:15;;;;;;;9.40;8.60;;;;;;;21.22;32.77;94673.47;6085130;28;109051;-65
2023/03/25 05:54:27;;;;;;;9.20;8.30;;;;;;;21.31;33.05;94674.25;6074650;28;109471;-66
2023/03/25 05:57:35;;;;;;;8.90;8.20;;;;;;;21.39;32.64;94670.06;6085040;28;109599;-66
2023/03/25 06:00:45;;;;;;;9.10;8.30;;;;;;;21.45;32.65;94674.91;6062442;28;109575;-66
2023/03/25 06:03:53;;;;;;;9.30;8.50;;;;;;;21.51;32.77;94675.59;6050606;28;111441;-66
2023/03/25 06:07:07;;;;;;;9.00;8.20;;;;;;;21.58;32.74;94683.88;6060785;28;109164;-65
2023/03/25 06:10:15;;;;;;;9.00;8.10;;;;;;;21.65;32.87;94684.19;6060777;28;111027;-66
2023/03/25 06:13:32;;;;;;;8.87;8.07;;;;;;;21.70;33.10;94684.06;6061129;28;109150;-65
2023/03/25 06:16:44;;;;;;;9.63;8.57;;;;;;;21.75;32.76;94677.78;6050159;28;109057;-66
2023/03/25 06:19:51;;;;;;;9.53;8.63;;;;;;;21.81;33.17;94674.66;6060788;28;109437;-65
2023/03/25 06:23:06;;;;;;;9.43;8.53;;;;;;;21.90;32.89;94679.25;6060644;28;109096;-65
2023/03/25 06:26:14;;;;;;;8.77;8.00;;;;;;;21.96;33.09;94675.31;6054633;28;108754;-66
2023/03/25 06:29:26;;;;;;;9.37;8.50;;;;;;;22.00;32.77;94673.59;6066322;28;111532;-65
2023/03/25 06:32:37;;;;;;;9.40;8.50;;;;;;;22.02;32.67;94672.22;6084516;28;109169;-66
2023/03/25 06:35:44;;;;;;;9.70;8.80;;;;;;;22.08;32.75;94680.81;6084969;28;109268;-66
2023/03/25 06:39:01;;;;;;;10.43;8.90;;;;;;;22.10;33.14;94668.75;6073927;28;110529;-65
2023/03/25 06:42:12;;;;;;;9.37;8.57;;;;;;;22.17;33.27;94678.13;6084019;28;109246;-66
2023/03/25 06:45:17;;;;;;;10.87;9.00;;;;;;;22.19;33.08;94676.75;6083937;28;109313;-66
2023/03/25 06:48:22;;;;;;;10.83;9.93;;;;;;;22.24;33.35;94684.56;6084171;28;109403;-66
2023/03/25 06:51:32;;;;;;;12.60;11.50;;;;;;;22.27;33.48;94681.28;6073537;28;109302;-66
2023/03/25 06:54:43;;;;;;;12.63;11.63;;;;;;;22.28;32.98;94684.72;6083771;28;109187;-66
2023/03/25 06:57:49;;;;;;;14.40;13.10;;;;;;;22.22;33.24;94662.00;6084804;28;109047;-66
2023/03/25 07:01:01;;;;;;;13.50;12.20;;;;;;;22.32;33.57;94686.44;6053193;28;109204;-66
2023/03/25 07:04:12;;;;;;;14.17;12.97;;;;;;;22.33;33.12;94687.22;6062716;28;109194;-66
2023/03/25 07:07:22;;;;;;;15.40;12.50;;;;;;;22.35;33.00;94685.03;6063862;28;109310;-65
2023/03/25 07:10:34;;;;;;;13.70;12.60;;;;;;;22.39;33.30;94686.75;6063599;28;108867;-65
2023/03/25 07:13:43;;;;;;;14.67;13.47;;;;;;;22.42;33.17;94680.00;6052507;28;109167;-65
2023/03/25 07:16:49;;;;;;;14.70;13.50;;;;;;;22.44;33.31;94683.13;6063595;28;109817;-64
2023/03/25 07:20:03;;;;;;;15.10;13.90;;;;;;;22.47;33.31;94681.72;6066106;28;109059;-65
2023/03/25 07:23:12;;;;;;;14.90;13.60;;;;;;;22.47;33.36;94668.38;6058865;28;108837;-66
2023/03/25 07:26:24;;;;;;;16.07;14.60;;;;;;;22.49;33.68;94674.97;6059566;28;109144;-65
2023/03/25 07:29:33;;;;;;;14.40;13.20;;;;;;;22.52;33.31;94679.69;6075031;28;109025;-65
2023/03/25 07:32:45;;;;;;;16.03;14.53;;;;;;;22.59;33.74;94672.00;6087226;28;109127;-66
2023/03/25 07:35:55;;;;;;;16.10;14.70;;;;;;;22.60;33.23;94673.56;6076281;28;109402;-68
2023/03/25 07:39:03;;;;;;;15.57;14.37;;;;;;;22.61;33.36;94669.00;6087171;28;109053;-66
2023/03/25 07:42:17;;;;;;;15.87;14.57;;;;;;;22.67;33.39;94676.50;6086993;28;108891;-67
2023/03/25 07:45:27;;;;;;;16.30;14.90;;;;;;;22.68;33.16;94675.44;6087042;28;109146;-67
2023/03/25 07:48:53;;;;;;;17.83;16.33;;;;;;;22.69;33.79;94674.34;6077463;28;109335;-66
2023/03/25 07:52:03;;;;;;;16.47;15.07;;;;;;;22.72;33.94;94666.78;6087019;28;109066;-67
2023/03/25 07:55:13;;;;;;;17.33;15.83;;;;;;;22.64;33.66;94661.16;6086715;28;109408;-65
2023/03/25 07:58:26;;;;;;;17.20;15.70;;;;;;;22.74;33.87;94659.25;6073247;28;109065;-67
2023/03/25 08:01:36;;;;;;;17.50;16.00;;;;;;;22.75;33.52;94656.25;6062259;28;109107;-66
2023/03/25 08:04:45;;;;;;;16.93;15.43;;;;;;;22.76;33.76;94657.03;6062960;28;109129;-66
2023/03/25 08:07:58;;;;;;;17.40;16.00;;;;;;;22.75;33.85;94652.81;6062491;28;109050;-66
2023/03/25 08:11:08;;;;;;;17.33;16.00;;;;;;;22.74;33.24;94645.91;6051457;28;110316;-66
2023/03/25 08:14:19;;;;;;;17.20;15.80;;;;;;;22.79;33.26;94643.06;6062700;28;109280;-66
2023/03/25 08:17:29;;;;;;;17.13;15.70;;;;;;;22.79;33.39;94641.19;6063650;28;109871;-67
2023/03/25 08:20:42;;;;;;;17.83;16.33;;;;;;;22.82;33.77;94639.75;6057472;28;108780;-66
2023/03/25 08:23:51;;;;;;;18.67;16.97;;;;;;;22.80;33.29;94637.41;6060724;28;109022;-66
2023/03/25 08:27:01;;;;;;;17.30;15.70;;;;;;;22.76;33.61;94630.38;6062608;28;109066;-66
2023/03/25 08:30:25;;;;;;;18.33;16.70;;;;;;;22.76;33.72;94623.16;6080601;28;109251;-67
2023/03/25 08:33:39;;;;;;;18.77;17.27;;;;;;;22.82;33.44;94629.09;6074122;28;109115;-66
2023/03/25 08:36:48;;;;;;;17.57;16.17;;;;;;;22.81;33.45;94627.53;6086034;28;109147;-67
2023/03/25 08:39:56;;;;;;;18.43;16.83;;;;;;;22.79;33.62;94629.72;6085835;28;109023;-66
2023/03/25 08:43:09;;;;;;;19.87;18.07;;;;;;;22.78;33.54;94617.50;6081192;28;109124;-65
2023/03/25 08:46:21;;;;;;;18.90;17.30;;;;;;;22.76;33.63;94609.03;6079995;28;109058;-66
2023/03/25 08:49:33;;;;;;;20.07;18.37;;;;;;;22.78;33.91;94610.28;6085929;28;109020;-67
2023/03/25 08:52:40;;;;;;;18.73;17.23;;;;;;;22.73;34.18;94599.00;6085727;28;109028;-67
2023/03/25 08:55:53;;;;;;;18.17;16.70;;;;;;;22.80;34.03;94599.28;6075037;28;110073;-66
2023/03/25 08:59:00;;;;;;;18.27;16.70;;;;;;;22.80;34.19;94607.28;6078200;28;109006;-67
2023/03/25 09:02:12;;;;;;;18.50;17.00;;;;;;;22.80;34.15;94594.72;6062135;28;109062;-67
2023/03/25 09:05:22;;;;;;;19.40;17.80;;;;;;;22.74;33.63;94597.91;6060332;28;109169;-67
2023/03/25 09:08:29;;;;;;;19.20;17.50;;;;;;;22.70;33.86;94600.44;6050541;28;110098;-67
2023/03/25 09:11:43;;;;;;;19.13;17.53;;;;;;;22.73;33.88;94593.66;6062900;28;109012;-66
2023/03/25 09:14:53;;;;;;;18.93;17.37;;;;;;;22.75;34.29;94586.13;6062031;28;109130;-66
2023/03/25 09:18:06;;;;;;;19.27;17.67;;;;;;;22.74;34.41;94580.00;6053088;28;110409;-66
2023/03/25 09:21:18;;;;;;;17.70;16.17;;;;;;;22.74;34.24;94573.91;6060005;28;111007;-66
2023/03/25 09:24:32;;;;;;;18.90;17.30;;;;;;;22.73;33.99;94577.66;6061680;28;109144;-67
2023/03/25 09:27:48;;;;;;;17.67;16.17;;;;;;;22.74;33.98;94572.00;6061815;28;109091;-66
2023/03/25 09:31:00;;;;;;;17.70;16.17;;;;;;;22.77;34.49;94573.25;6072745;28;109155;-66
2023/03/25 09:34:13;;;;;;;17.30;15.90;;;;;;;22.75;34.13;94560.22;6085350;28;109204;-66
2023/03/25 09:37:20;;;;;;;16.27;14.97;;;;;;;22.71;34.01;94551.31;6084621;28;109081;-65
2023/03/25 09:40:27;;;;;;;19.17;17.67;;;;;;;22.72;34.47;94557.44;6080129;28;109311;-66
2023/03/25 09:43:50;;;;;;;28.77;26.47;;;;;;;22.70;34.54;94539.88;6078273;28;109387;-65
2023/03/25 09:47:07;;;;;;;39.13;36.10;;;;;;;22.70;34.22;94553.19;6085245;28;109771;-66
2023/03/25 09:50:22;;;;;;;43.37;39.90;;;;;;;22.75;34.27;94551.44;6085121;28;109719;-66
2023/03/25 09:53:37;;;;;;;47.80;44.00;;;;;;;22.72;34.67;94544.88;6073280;28;109148;-66
2023/03/25 09:56:51;;;;;;;51.30;47.30;;;;;;;22.73;34.70;94535.78;6084729;28;109183;-66
2023/03/25 10:00:01;;;;;;;65.43;60.33;;;;;;;22.76;34.77;94535.13;6070395;28;109330;-66
2023/03/25 10:03:21;;;;;;;72.40;66.77;;;;;;;22.74;34.66;94526.66;6055689;28;109177;-66
2023/03/25 10:06:35;;;;;;;68.93;63.50;;;;;;;22.72;34.78;94528.09;6055606;28;109015;-67
2023/03/25 10:09:49;;;;;;;70.00;64.40;;;;;;;22.67;34.75;94527.16;6060169;28;109253;-66
2023/03/25 10:13:07;;;;;;;67.13;62.00;;;;;;;22.69;35.29;94530.31;6060985;28;109969;-65
2023/03/25 10:16:31;;;;;;;66.33;61.20;;;;;;;22.67;35.18;94516.47;6052265;28;109069;-67
2023/03/25 10:19:52;;;;;;;62.93;58.03;;;;;;;22.68;34.84;94512.75;6060748;28;108806;-65
2023/03/25 10:23:13;;;;;;;62.60;57.60;;;;;;;22.65;35.39;94512.56;6060675;28;109134;-65
2023/03/25 10:26:30;;;;;;;60.20;55.60;;;;;;;22.67;34.91;94505.03;6054158;28;110238;-66
2023/03/25 10:29:45;;;;;;;57.83;53.33;;;;;;;22.66;34.80;94504.25;6072054;28;109258;-66
2023/03/25 10:32:59;;;;;;;59.50;54.80;;;;;;;22.64;35.35;94501.13;6087535;28;109249;-67
2023/03/25 10:36:10;;;;;;;55.17;50.83;;;;;;;22.64;35.38;94495.78;6088297;28;112159;-67
2023/03/25 10:39:23;;;;;;;54.90;50.50;;;;;;;22.63;35.14;94488.91;6076767;28;109411;-67
2023/03/25 10:42:39;;;;;;;54.67;50.40;;;;;;;22.56;35.23;94467.28;6087369;28;109149;-66
2023/03/25 10:45:50;;;;;;;54.80;50.40;;;;;;;22.63;35.37;94470.22;6088495;28;109133;-68
2023/03/25 10:48:59;;;;;;;52.70;48.70;;;;;;;22.64;35.04;94476.34;6083023;28;109442;-66
2023/03/25 10:52:15;;;;;;;49.00;45.00;;;;;;;22.62;34.82;94470.56;6082498;28;109257;-67
2023/03/25 10:55:30;;;;;;;45.30;41.73;;;;;;;22.64;34.98;94458.47;6087609;28;110369;-66
2023/03/25 10:58:44;;;;;;;43.20;39.80;;;;;;;22.63;34.74;94450.78;6083997;28;109127;-66
2023/03/25 11:01:57;;;;;;;41.40;38.20;;;;;;;22.56;35.05;94445.94;6053142;28;109278;-66
2023/03/25 11:05:09;;;;;;;39.83;36.53;;;;;;;22.61;35.34;94447.66;6063549;28;109021;-65
2023/03/25 11:08:28;;;;;;;38.07;34.97;;;;;;;22.60;35.09;94444.22;6063801;28;109446;-67
2023/03/25 11:11:40;;;;;;;35.30;32.60;;;;;;;22.61;34.76;94437.78;6059030;28;111729;-67
2023/03/25 11:14:55;;;;;;;35.00;32.20;;;;;;;22.61;34.52;94434.31;6057483;28;109147;-67
2023/03/25 11:18:07;;;;;;;32.47;29.97;;;;;;;22.56;34.51;94429.94;6063899;28;109337;-67
2023/03/25 11:21:15;;;;;;;29.90;27.60;;;;;;;22.62;34.51;94433.22;6063528;28;108990;-67
2023/03/25 11:24:21;;;;;;;29.73;27.43;;;;;;;22.61;34.87;94429.00;6052842;28;108955;-65
2023/03/25 11:27:30;;;;;;;28.50;26.20;;;;;;;22.59;34.42;94423.97;6064316;28;109035;-65
2023/03/25 11:30:34;;;;;;;27.37;25.27;;;;;;;22.59;34.39;94407.19;6082210;28;109100;-66
2023/03/25 11:33:42;;;;;;;26.70;24.70;;;;;;;22.59;34.56;94410.66;6087239;28;109257;-67
2023/03/25 11:36:55;;;;;;;26.60;24.60;;;;;;;22.60;34.86;94401.53;6076631;28;109350;-66
2023/03/25 11:40:13;;;;;;;25.63;23.63;;;;;;;22.58;34.42;94387.75;6087232;28;109274;-66
2023/03/25 11:43:24;;;;;;;24.60;22.60;;;;;;;22.57;34.69;94394.19;6086191;28;109134;-66
2023/03/25 11:46:36;;;;;;;23.73;21.83;;;;;;;22.48;34.91;94369.44;6075790;28;109226;-66
2023/03/25 11:49:41;;;;;;;20.67;18.97;;;;;;;22.56;34.55;94373.94;6086498;28;109162;-66
2023/03/25 11:52:48;;;;;;;17.93;16.43;;;;;;;22.55;34.07;94375.03;6086747;28;111971;-66
2023/03/25 11:55:56;;;;;;;19.87;18.30;;;;;;;22.56;34.60;94373.94;6087440;28;109202;-66
2023/03/25 11:59:03;;;;;;;18.43;16.90;;;;;;;22.50;34.44;94359.22;6070085;28;109079;-65
2023/03/25 12:02:23;;;;;;;18.30;16.90;;;;;;;22.49;34.25;94346.22;6063385;28;109385;-66
2023/03/25 12:05:29;;;;;;;17.73;16.23;;;;;;;22.55;34.12;94353.72;6062443;28;109156;-65
2023/03/25 12:08:44;;;;;;;20.13;18.53;;;;;;;22.51;34.61;94344.00;6058198;28;109319;-65
2023/03/25 12:12:02;;;;;;;21.07;19.33;;;;;;;22.57;34.45;94340.88;6057279;28;110477;-65
2023/03/25 12:15:22;;;;;;;19.37;17.77;;;;;;;22.56;34.79;94335.84;6062768;28;109985;-66
2023/03/25 12:18:42;;;;;;;19.87;18.27;;;;;;;22.61;34.41;94341.78;6062350;28;109183;-66
2023/03/25 12:22:05;;;;;;;18.70;17.20;;;;;;;22.64;34.87;94341.13;6052776;28;110372;-66
2023/03/25 12:25:28;;;;;;;19.63;18.03;;;;;;;22.65;34.65;94336.56;6062930;28;109339;-66
2023/03/25 12:29:08;;;;;;;19.40;17.77;;;;;;;22.65;35.32;94339.22;6065159;28;109223;-66
2023/03/25 12:32:25;;;;;;;18.37;16.77;;;;;;;22.61;35.40;94346.31;6076179;28;108765;-66
2023/03/25 12:35:41;;;;;;;19.67;17.80;;;;;;;22.63;35.73;94339.56;6086399;28;109048;-67
2023/03/25 12:38:57;;;;;;;18.40;16.87;;;;;;;22.62;36.62;94335.31;6085880;28;109169;-65
2023/03/25 12:42:11;;;;;;;18.23;16.57;;;;;;;22.45;36.71;94316.78;6086536;28;110201;-66
2023/03/25 12:45:53;;;;;;;17.93;16.43;;;;;;;22.58;36.78;94342.44;6075733;28;109044;-66
2023/03/25 12:49:16;;;;;;;18.17;16.27;;;;;;;22.60;36.74;94353.53;6086009;28;109123;-65
2023/03/25 12:52:28;;;;;;;16.93;15.43;;;;;;;22.59;36.63;94351.19;6085523;28;109085;-66
2023/03/25 12:55:56;;;;;;;17.23;15.57;;;;;;;22.57;36.51;94346.19;6074811;28;110173;-66
2023/03/25 12:59:30;;;;;;;16.40;15.10;;;;;;;22.57;36.57;94345.41;6080114;28;109431;-66
2023/03/25 13:03:21;;;;;;;16.33;14.77;;;;;;;22.59;36.61;94343.19;6062201;28;109196;-65
2023/03/25 13:06:33;;;;;;;15.50;14.10;;;;;;;22.58;37.14;94341.66;6015151;28;110930;-67
2023/03/25 13:09:52;;;;;;;14.80;13.50;;;;;;;22.51;37.08;94336.00;6015071;28;109381;-66
2023/03/25 13:13:00;;;;;;;15.47;14.17;;;;;;;22.56;36.88;94346.50;6015173;28;110372;-66
2023/03/25 13:16:13;;;;;;;14.17;13.07;;;;;;;22.57;37.30;94340.09;6016179;28;109709;-68
2023/03/25 13:19:23;;;;;;;15.50;14.10;;;;;;;22.59;37.44;94340.53;6004335;28;109390;-66
2023/03/25 13:22:35;;;;;;;13.90;12.60;;;;;;;22.55;36.90;94337.72;6015310;29;109381;-66
2023/03/25 13:25:52;;;;;;;14.33;13.10;;;;;;;22.47;37.28;94329.78;6014737;28;109110;-67
2023/03/25 13:29:00;;;;;;;14.77;13.50;;;;;;;22.54;37.17;94341.50;6012172;28;109359;-66
2023/03/25 13:32:13;;;;;;;14.17;12.87;;;;;;;22.60;38.12;94334.88;6037691;28;109030;-66
2023/03/25 13:35:23;;;;;;;14.20;12.90;;;;;;;22.63;37.77;94336.09;6038032;28;109453;-67
2023/03/25 13:38:33;;;;;;;14.50;13.17;;;;;;;22.62;37.55;94338.00;6038071;28;109344;-65
2023/03/25 13:41:45;;;;;;;13.40;12.30;;;;;;;22.60;37.90;94342.88;6026573;28;109316;-65
2023/03/25 13:44:52;;;;;;;13.60;12.40;;;;;;;22.59;37.30;94348.53;6038189;28;110859;-67
2023/03/25 13:48:05;;;;;;;11.93;10.93;;;;;;;22.61;37.70;94352.44;6038140;28;109170;-67
2023/03/25 13:51:12;;;;;;;12.77;11.70;;;;;;;22.60;37.17;94358.88;6033071;28;109241;-67
2023/03/25 13:54:25;;;;;;;12.70;11.67;;;;;;;22.58;37.61;94361.09;6031433;28;109299;-67
2023/03/25 13:57:59;;;;;;;12.73;11.20;;;;;;;22.56;37.63;94373.94;6037039;28;108992;-70
2023/03/25 14:01:32;;;;;;;12.00;11.00;;;;;;;22.56;37.59;94381.16;6004715;29;109055;-67
2023/03/25 14:05:12;;;;;;;12.43;11.33;;;;;;;22.55;37.06;94404.38;6022699;28;109215;-67
2023/03/25 14:08:48;;;;;;;12.67;11.37;;;;;;;22.54;37.12;94397.50;6064551;28;110058;-67
2023/03/25 14:12:02;;;;;;;11.80;10.83;;;;;;;22.54;37.56;94410.81;6064417;28;109130;-67
2023/03/25 14:15:17;;;;;;;12.00;11.00;;;;;;;22.54;37.37;94415.38;6053260;28;109086;-67
2023/03/25 14:18:30;;;;;;;11.90;10.83;;;;;;;22.53;36.92;94411.94;6064888;28;109256;-67
2023/03/25 14:21:43;;;;;;;10.97;10.10;;;;;;;22.50;36.79;94415.22;6064776;28;109233;-68
2023/03/25 14:24:54;;;;;;;11.90;11.00;;;;;;;22.52;36.62;94415.69;6064556;28;109411;-67
2023/03/25 14:28:13;;;;;;;10.90;10.00;;;;;;;22.53;37.23;94413.81;6053192;28;110329;-67
2023/03/25 14:31:32;;;;;;;11.30;10.40;;;;;;;22.54;37.05;94416.16;6087377;28;109203;-66
2023/03/25 14:34:40;;;;;;;11.40;10.50;;;;;;;22.51;36.61;94405.31;6086957;28;109061;-66
2023/03/25 14:37:44;;;;;;;11.20;10.30;;;;;;;22.50;36.57;94409.09;6076748;28;110648;-66
2023/03/25 14:40:51;;;;;;;11.10;10.23;;;;;;;22.52;36.86;94413.03;6088014;28;110152;-67